createdAt,value
2023-05-02T00:04:19.178Z,39.9
2023-05-02T00:09:22.816Z,39.9
2023-05-02T00:14:23.308Z,39.9
2023-05-02T00:19:23.796Z,39.8
2023-05-02T00:24:25.392Z,39.7
2023-05-02T00:29:25.924Z,39.7
2023-05-02T00:34:26.382Z,39.7
2023-05-02T00:39:26.868Z,39.6
2023-05-02T00:44:27.394Z,39.6
2023-05-02T00:49:27.863Z,39.5
2023-05-02T00:54:28.329Z,39.4
2023-05-02T00:59:28.825Z,39.4
2023-05-02T01:04:29.338Z,39.4
2023-05-02T01:09:29.813Z,39.3
2023-05-02T01:14:30.324Z,39.2
2023-05-02T01:19:30.801Z,39.2
2023-05-02T01:24:31.379Z,39.2
2023-05-02T01:29:31.965Z,39.1
2023-05-02T01:34:32.957Z,39.1
2023-05-02T01:39:33.454Z,39.1
2023-05-02T01:44:33.899Z,39
2023-05-02T01:49:34.377Z,38.9
2023-05-02T01:54:34.857Z,38.9
2023-05-02T01:59:35.462Z,38.9
2023-05-02T02:04:36.912Z,38.8
2023-05-02T02:09:38.437Z,38.8
2023-05-02T02:14:38.925Z,38.7
2023-05-02T02:19:39.380Z,38.7
2023-05-02T02:24:39.834Z,38.6
2023-05-02T02:29:40.332Z,38.6
2023-05-02T02:34:40.817Z,38.6
2023-05-02T02:39:41.292Z,38.5
2023-05-02T02:44:41.725Z,38.5
2023-05-02T02:49:42.164Z,38.4
2023-05-02T02:54:42.637Z,38.4
2023-05-02T02:59:43.077Z,38.4
2023-05-02T03:04:43.541Z,38.3
2023-05-02T03:09:44.863Z,38.2
2023-05-02T03:14:45.412Z,38.2
2023-05-02T03:19:45.881Z,38.2
2023-05-02T03:24:46.308Z,38.1
2023-05-02T03:29:46.773Z,38.1
2023-05-02T03:34:47.241Z,38.1
2023-05-02T03:39:47.719Z,38
2023-05-02T03:44:48.175Z,38
2023-05-02T03:49:48.597Z,37.9
2023-05-02T03:54:49.034Z,37.9
2023-05-02T03:59:49.442Z,37.9
2023-05-02T04:04:49.844Z,37.8
2023-05-02T04:09:51.132Z,37.8
2023-05-02T04:14:51.523Z,37.7
2023-05-02T04:19:51.929Z,37.7
2023-05-02T04:24:52.302Z,37.7
2023-05-02T04:29:52.701Z,37.6
2023-05-02T04:34:54.107Z,37.6
2023-05-02T04:39:54.515Z,37.6
2023-05-02T04:44:54.900Z,37.5
2023-05-02T04:49:55.342Z,37.5
2023-05-02T04:54:55.767Z,37.4
2023-05-02T04:59:56.153Z,37.4
2023-05-02T05:04:56.590Z,37.4
2023-05-02T05:09:57.181Z,37.4
2023-05-02T05:14:57.660Z,37.3
2023-05-02T05:19:58.132Z,37.2
2023-05-02T05:24:58.609Z,37.2
2023-05-02T05:29:59.138Z,37.2
2023-05-02T05:34:59.771Z,37.2
2023-05-02T05:40:00.550Z,37.1
2023-05-02T05:45:01.204Z,37
2023-05-02T05:50:01.854Z,36.9
2023-05-02T05:55:02.598Z,36.9
2023-05-02T06:00:03.183Z,36.9
2023-05-02T06:05:04.281Z,36.9
2023-05-02T06:10:04.837Z,36.8
2023-05-02T06:15:05.362Z,36.8
2023-05-02T06:20:05.829Z,36.7
2023-05-02T06:25:06.226Z,36.7
2023-05-02T06:30:07.454Z,36.7
2023-05-02T06:35:07.853Z,36.7
2023-05-02T06:40:08.320Z,36.6
2023-05-02T06:45:08.715Z,36.6
2023-05-02T06:50:09.156Z,36.6
2023-05-02T06:55:09.536Z,36.6
2023-05-02T07:00:10.160Z,36.5
2023-05-02T07:05:10.662Z,36.4
2023-05-02T07:10:11.143Z,36.3
2023-05-02T07:15:11.597Z,36.3
2023-05-02T07:20:12.012Z,36.2
2023-05-02T07:25:12.494Z,36.2
2023-05-02T07:30:12.920Z,36.2
2023-05-02T07:35:13.307Z,36.2
2023-05-02T07:40:13.780Z,36.1
2023-05-02T07:45:14.142Z,36.1
2023-05-02T07:50:14.679Z,36.1
2023-05-02T07:55:15.173Z,36.1
2023-05-02T08:00:15.762Z,35.9
2023-05-02T08:05:16.479Z,35.9
2023-05-02T08:10:16.932Z,35.9
2023-05-02T08:15:17.302Z,35.9
2023-05-02T08:20:18.649Z,35.8
2023-05-02T08:25:19.041Z,35.7
2023-05-02T08:30:19.390Z,35.7
2023-05-02T08:35:19.829Z,35.7
2023-05-02T08:40:30.338Z,35.7
2023-05-02T08:45:34.003Z,35.6
2023-05-02T08:50:34.391Z,35.6
2023-05-02T08:55:34.797Z,35.6
2023-05-02T09:00:35.170Z,35.6
2023-05-02T09:05:35.574Z,35.5
2023-05-02T09:10:36.018Z,35.5
2023-05-02T09:15:36.410Z,35.5
2023-05-02T09:20:36.786Z,35.4
2023-05-02T09:25:37.262Z,35.4
2023-05-02T09:30:37.674Z,35.4
2023-05-02T09:35:38.072Z,35.4
2023-05-02T09:40:38.521Z,35.3
2023-05-02T09:45:38.892Z,35.3
2023-05-02T09:50:39.249Z,35.2
2023-05-02T09:55:39.647Z,35.2
2023-05-02T10:00:40.048Z,35.2
2023-05-02T10:05:40.570Z,35.2
2023-05-02T10:10:41.064Z,35.2
2023-05-02T10:15:41.463Z,35.1
2023-05-02T10:20:41.924Z,35.1
2023-05-02T10:25:42.274Z,35.1
2023-05-02T10:30:42.623Z,35.1
2023-05-02T10:35:43.125Z,35
2023-05-02T10:40:43.664Z,35
2023-05-02T10:45:44.099Z,34.9
2023-05-02T10:50:44.631Z,34.9
2023-05-02T10:55:45.203Z,34.9
2023-05-02T11:00:45.559Z,34.9
2023-05-02T11:05:46.054Z,34.9
2023-05-02T11:10:46.360Z,34.9
2023-05-02T11:15:46.924Z,34.8
2023-05-02T11:20:47.232Z,34.8
2023-05-02T11:25:47.599Z,34.7
2023-05-02T11:30:48.839Z,34.7
2023-05-02T11:35:49.191Z,34.7
2023-05-02T11:40:49.523Z,34.7
2023-05-02T11:45:49.891Z,34.7
2023-05-02T11:50:50.731Z,34.6
2023-05-02T11:55:51.244Z,34.6
2023-05-02T12:00:51.861Z,34.6
2023-05-02T12:05:52.352Z,34.6
2023-05-02T12:10:52.972Z,34.4
2023-05-02T12:15:53.358Z,34.4
2023-05-02T12:20:53.924Z,34.3
2023-05-02T12:25:54.232Z,34.3
2023-05-02T12:30:54.564Z,34.2
2023-05-02T12:35:55.006Z,34.2
2023-05-02T12:40:55.300Z,34.2
2023-05-02T12:45:55.611Z,34.2
2023-05-02T12:50:56.024Z,34.2
2023-05-02T12:55:56.325Z,34.1
2023-05-02T13:00:56.868Z,34.1
2023-05-02T13:05:57.167Z,34.1
2023-05-02T13:10:57.497Z,34.1
2023-05-02T13:15:57.811Z,34.1
2023-05-02T13:20:58.143Z,34
2023-05-02T13:25:58.457Z,34
2023-05-02T13:30:58.989Z,34
2023-05-02T13:35:59.446Z,33.9
2023-05-02T13:40:59.769Z,33.9
2023-05-02T13:46:00.113Z,33.9
2023-05-02T13:51:00.750Z,33.9
2023-05-02T13:56:01.163Z,33.9
2023-05-02T14:01:02.370Z,33.9
2023-05-02T14:06:02.742Z,33.8
2023-05-02T14:16:09.677Z,33.8
2023-05-02T14:21:10.134Z,33.7
2023-05-02T14:26:10.452Z,33.7
2023-05-02T14:31:13.901Z,33.7
2023-05-02T14:36:14.305Z,33.7
2023-05-02T14:41:14.606Z,33.7
2023-05-02T14:46:14.963Z,33.6
2023-05-02T14:51:15.341Z,33.6
2023-05-02T14:56:15.660Z,33.6
2023-05-02T15:01:16.090Z,33.6
2023-05-02T15:06:16.500Z,33.6
2023-05-02T15:11:16.961Z,33.6
2023-05-02T15:16:17.487Z,33.5
2023-05-02T15:21:17.796Z,33.5
2023-05-02T15:26:18.356Z,33.5
2023-05-02T15:31:18.815Z,33.4
2023-05-02T15:36:19.257Z,33.4
2023-05-02T15:41:20.466Z,33.4
2023-05-02T15:46:20.780Z,33.4
2023-05-02T15:51:21.301Z,33.4
2023-05-02T15:56:22.302Z,33.4
2023-05-02T16:01:22.809Z,33.3
2023-05-02T16:06:23.462Z,33.3
2023-05-02T16:11:23.811Z,33.3
2023-05-02T16:16:24.178Z,33.2
2023-05-02T16:21:24.589Z,33.2
2023-05-02T16:26:25.115Z,33.2
2023-05-02T16:31:25.642Z,33.2
2023-05-02T16:36:26.388Z,33.2
2023-05-02T16:41:26.805Z,35.6
2023-05-02T16:46:27.342Z,38
2023-05-02T16:51:27.962Z,40.1
2023-05-02T16:56:29.447Z,41.7
2023-05-02T17:01:30.182Z,42.2
2023-05-02T17:06:30.956Z,42.6
2023-05-02T17:11:31.660Z,42.9
2023-05-02T17:16:32.301Z,42.9
2023-05-02T17:21:32.946Z,42.9
2023-05-02T17:26:33.515Z,43.6
2023-05-02T17:31:34.454Z,43.9
2023-05-02T17:36:35.145Z,43.9
2023-05-02T17:41:35.870Z,43.9
2023-05-02T17:46:36.644Z,43.8
2023-05-02T17:51:37.545Z,44.3
2023-05-02T17:56:38.188Z,44.4
2023-05-02T18:01:38.852Z,44.4
2023-05-02T18:06:39.552Z,44.4
2023-05-02T18:11:40.271Z,44.4
2023-05-02T18:16:40.936Z,44.4
2023-05-02T18:21:41.684Z,44.4
2023-05-02T18:26:42.858Z,44.3
2023-05-02T18:31:43.521Z,44.2
2023-05-02T18:36:44.129Z,44.2
2023-05-02T18:41:44.762Z,44.2
2023-05-02T18:46:45.490Z,44.2
2023-05-02T18:51:46.380Z,44.1
2023-05-02T18:56:47.688Z,44.1
2023-05-02T19:01:49.233Z,44.1
2023-05-02T19:06:50.206Z,44.1
2023-05-02T19:11:50.959Z,44
2023-05-02T19:16:51.623Z,44
2023-05-02T19:21:52.433Z,43.9
2023-05-02T19:26:53.074Z,43.9
2023-05-02T19:31:53.797Z,43.9
2023-05-02T19:36:54.600Z,43.9
2023-05-02T19:41:55.225Z,43.7
2023-05-02T19:46:55.825Z,43.7
2023-05-02T19:51:56.423Z,43.6
2023-05-02T19:56:57.024Z,43.6
2023-05-02T20:01:57.648Z,43.6
2023-05-02T20:06:58.221Z,43.5
2023-05-02T20:11:58.827Z,43.5
2023-05-02T20:17:01.495Z,43.4
2023-05-02T20:22:02.469Z,43.4
2023-05-02T20:27:03.024Z,41.2
2023-05-02T20:32:03.646Z,39.2
2023-05-02T20:37:04.145Z,38.9
2023-05-02T20:42:04.588Z,38.7
2023-05-02T20:47:05.053Z,38.7
2023-05-02T20:52:05.568Z,38.6
2023-05-02T20:57:06.105Z,38.6
2023-05-02T21:02:06.651Z,38.4
2023-05-02T21:07:07.254Z,38.4
2023-05-02T21:12:07.741Z,38.3
2023-05-02T21:17:08.371Z,38.2
2023-05-02T21:22:08.821Z,38.2
2023-05-02T21:27:09.307Z,38.1
2023-05-02T21:32:10.018Z,38
2023-05-02T21:37:11.560Z,37.9
2023-05-02T21:42:11.977Z,37.9
2023-05-02T21:47:12.636Z,37.8
2023-05-02T21:52:13.149Z,37.7
2023-05-02T21:57:13.592Z,37.7
2023-05-02T22:02:13.997Z,37.6
2023-05-02T22:07:14.689Z,37.6
2023-05-02T22:12:15.070Z,37.5
2023-05-02T22:17:15.557Z,37.4
2023-05-02T22:22:15.927Z,37.3
2023-05-02T22:27:16.364Z,37.2
2023-05-02T22:32:16.820Z,37.2
2023-05-02T22:37:17.334Z,37.1
2023-05-02T22:42:17.720Z,37.1
2023-05-02T22:47:18.068Z,37
2023-05-02T22:52:18.526Z,36.9
2023-05-02T22:57:19.039Z,36.9
2023-05-02T23:02:19.464Z,36.8
2023-05-02T23:07:20.844Z,36.7
2023-05-02T23:12:21.233Z,36.7
2023-05-02T23:17:21.653Z,36.7
2023-05-02T23:22:22.069Z,36.6
2023-05-02T23:27:22.520Z,36.6
2023-05-02T23:32:23.750Z,36.5
2023-05-02T23:37:24.449Z,36.4
2023-05-02T23:42:24.863Z,36.4
2023-05-02T23:47:25.313Z,36.4
2023-05-02T23:52:25.715Z,36.3
2023-05-02T23:57:26.115Z,36.2
